Time,TemperatureF,DewpointF,PressureIn,WindDirection,WindDirectionDegrees,WindSpeedMPH,WindSpeedGustMPH,Humidity,HourlyPrecipIn,Conditions,Clouds,dailyrainin,SoftwareType,DateUTC
2013-09-12 00:02:00,75.3,64.8,29.80,NW,319,0.0,0.0,70,0.00,,,0.00,Wunderground v.1.15,2013-09-12 04:02:00,
2013-09-12 00:07:00,75.1,65.1,29.80,NW,319,0.0,0.0,71,0.00,,,0.00,Wunderground v.1.15,2013-09-12 04:07:00,
2013-09-12 00:12:00,75.1,65.1,29.80,NW,319,0.0,0.0,71,0.00,,,0.00,Wunderground v.1.15,2013-09-12 04:12:00,
2013-09-12 00:17:00,75.1,65.1,29.80,NW,319,0.0,0.0,71,0.00,,,0.00,Wunderground v.1.15,2013-09-12 04:17:00,
2013-09-12 00:27:00,74.9,64.9,29.80,WNW,294,0.0,0.0,71,0.00,,,0.00,Wunderground v.1.15,2013-09-12 04:27:00,
2013-09-12 00:32:00,74.9,65.3,29.84,WNW,295,0.0,0.0,72,0.00,,,0.00,Wunderground v.1.15,2013-09-12 04:32:00,
2013-09-12 00:37:00,74.9,65.3,29.84,WNW,285,0.0,0.0,72,0.00,,,0.00,Wunderground v.1.15,2013-09-12 04:37:00,
2013-09-12 00:47:00,74.9,66.1,29.83,WNW,285,0.0,0.0,74,0.00,,,0.01,Wunderground v.1.15,2013-09-12 04:47:00,
2013-09-12 00:57:00,74.4,67.1,29.83,NW,320,0.0,0.0,78,0.00,,,0.01,Wunderground v.1.15,2013-09-12 04:57:00,
2013-09-12 01:07:00,73.9,67.7,29.83,West,280,0.0,0.0,81,0.00,,,0.01,Wunderground v.1.15,2013-09-12 05:07:00,
2013-09-12 01:12:00,73.5,67.3,29.83,West,278,0.0,0.0,81,0.00,,,0.01,Wunderground v.1.15,2013-09-12 05:12:00,
2013-09-12 01:17:00,73.2,67.4,29.84,NNW,333,0.0,0.0,82,0.00,,,0.01,Wunderground v.1.15,2013-09-12 05:17:00,
2013-09-12 01:27:00,73.0,67.5,29.84,West,277,0.0,0.0,83,0.00,,,0.01,Wunderground v.1.15,2013-09-12 05:27:00,
2013-09-12 01:37:00,72.8,67.7,29.83,West,278,0.0,0.0,84,0.00,,,0.01,Wunderground v.1.15,2013-09-12 05:37:00,
2013-09-12 01:47:00,72.7,67.6,29.82,West,277,0.0,0.0,84,0.00,,,0.01,Wunderground v.1.15,2013-09-12 05:47:00,
2013-09-12 01:57:00,72.3,67.2,29.82,West,278,0.0,0.0,84,0.00,,,0.01,Wunderground v.1.15,2013-09-12 05:57:00,
2013-09-12 02:07:00,72.0,67.2,29.80,West,278,0.0,0.0,85,0.00,,,0.01,Wunderground v.1.15,2013-09-12 06:07:00,
2013-09-12 02:12:00,71.8,67.0,29.80,West,278,0.0,0.0,85,0.00,,,0.01,Wunderground v.1.15,2013-09-12 06:12:00,
2013-09-12 02:27:00,71.6,66.8,29.79,West,278,0.0,0.0,85,0.00,,,0.01,Wunderground v.1.15,2013-09-12 06:27:00,
2013-09-12 02:37:00,71.3,66.6,29.79,West,278,0.0,0.0,85,0.00,,,0.01,Wunderground v.1.15,2013-09-12 06:37:00,
2013-09-12 02:47:00,71.3,66.6,29.78,West,277,0.0,0.0,85,0.00,,,0.01,Wunderground v.1.15,2013-09-12 06:47:00,
2013-09-12 02:53:00,71.1,66.7,29.78,West,278,0.0,0.0,86,0.00,,,0.01,Wunderground v.1.15,2013-09-12 06:53:00,
2013-09-12 03:02:00,70.9,66.5,29.78,West,278,0.0,0.0,86,0.00,,,0.01,Wunderground v.1.15,2013-09-12 07:02:00,
2013-09-12 03:07:00,70.8,66.4,29.78,West,278,0.0,0.0,86,0.00,,,0.01,Wunderground v.1.15,2013-09-12 07:07:00,
2013-09-12 03:17:00,70.6,66.2,29.77,West,278,0.0,0.0,86,0.00,,,0.01,Wunderground v.1.15,2013-09-12 07:17:00,
2013-09-12 03:23:00,70.6,66.5,29.77,West,278,0.0,0.0,87,0.00,,,0.01,Wunderground v.1.15,2013-09-12 07:23:00,
2013-09-12 03:32:00,70.4,66.3,29.77,West,277,0.0,0.0,87,0.00,,,0.01,Wunderground v.1.15,2013-09-12 07:32:00,
2013-09-12 03:37:00,70.3,66.2,29.77,West,277,0.0,0.0,87,0.00,,,0.01,Wunderground v.1.15,2013-09-12 07:37:00,
2013-09-12 03:47:00,70.1,66.0,29.78,West,277,0.0,0.0,87,0.00,,,0.01,Wunderground v.1.15,2013-09-12 07:47:00,
2013-09-12 03:52:00,70.1,66.0,29.78,West,277,0.0,0.0,87,0.00,,,0.01,Wunderground v.1.15,2013-09-12 07:52:00,
2013-09-12 04:02:00,69.9,65.9,29.78,West,277,0.0,0.0,87,0.00,,,0.01,Wunderground v.1.15,2013-09-12 08:02:00,
2013-09-12 04:07:00,69.9,65.9,29.78,West,277,0.0,0.0,87,0.00,,,0.01,Wunderground v.1.15,2013-09-12 08:07:00,
2013-09-12 04:17:00,69.9,66.2,29.77,West,277,0.0,0.0,88,0.00,,,0.01,Wunderground v.1.15,2013-09-12 08:17:00,
2013-09-12 04:22:00,69.9,66.2,29.77,West,277,0.0,0.0,88,0.00,,,0.01,Wunderground v.1.15,2013-09-12 08:22:00,
2013-09-12 04:32:00,69.8,66.1,29.77,West,277,0.0,0.0,88,0.00,,,0.01,Wunderground v.1.15,2013-09-12 08:32:00,
2013-09-12 04:37:00,69.8,66.1,29.77,West,277,0.0,0.0,88,0.00,,,0.01,Wunderground v.1.15,2013-09-12 08:37:00,
2013-09-12 04:47:00,69.8,66.4,29.76,West,277,0.0,0.0,89,0.00,,,0.01,Wunderground v.1.15,2013-09-12 08:47:00,
2013-09-12 04:53:00,69.8,66.4,29.76,West,277,0.0,0.0,89,0.00,,,0.01,Wunderground v.1.15,2013-09-12 08:53:00,
2013-09-12 05:02:00,69.6,66.2,29.77,West,277,0.0,0.0,89,0.00,,,0.01,Wunderground v.1.15,2013-09-12 09:02:00,
2013-09-12 05:08:00,69.6,66.2,29.77,West,277,0.0,0.0,89,0.00,,,0.01,Wunderground v.1.15,2013-09-12 09:08:00,
2013-09-12 05:17:00,69.6,66.2,29.77,West,277,0.0,0.0,89,0.00,,,0.01,Wunderground v.1.15,2013-09-12 09:17:00,
2013-09-12 05:22:00,69.6,66.2,29.77,West,277,0.0,0.0,89,0.00,,,0.01,Wunderground v.1.15,2013-09-12 09:22:00,
2013-09-12 05:32:00,69.6,66.2,29.77,West,277,0.0,0.0,89,0.00,,,0.01,Wunderground v.1.15,2013-09-12 09:32:00,
2013-09-12 05:38:00,69.6,66.2,29.77,West,277,0.0,0.0,89,0.00,,,0.01,Wunderground v.1.15,2013-09-12 09:38:00,
2013-09-12 05:47:00,69.4,66.0,29.77,West,277,0.0,0.0,89,0.00,,,0.01,Wunderground v.1.15,2013-09-12 09:47:00,
2013-09-12 05:52:00,69.4,66.0,29.77,West,277,0.0,0.0,89,0.00,,,0.01,Wunderground v.1.15,2013-09-12 09:52:00,
2013-09-12 06:02:00,69.4,66.0,29.77,West,277,0.0,0.0,89,0.00,,,0.01,Wunderground v.1.15,2013-09-12 10:02:00,
2013-09-12 06:07:00,69.4,66.0,29.77,West,277,0.0,0.0,89,0.00,,,0.01,Wunderground v.1.15,2013-09-12 10:07:00,
2013-09-12 06:17:00,69.4,66.0,29.77,West,277,0.0,0.0,89,0.00,,,0.01,Wunderground v.1.15,2013-09-12 10:17:00,
2013-09-12 06:22:00,69.4,66.0,29.77,West,277,0.0,0.0,89,0.00,,,0.01,Wunderground v.1.15,2013-09-12 10:22:00,
2013-09-12 06:32:00,69.4,65.7,29.77,West,277,0.0,0.0,88,0.00,,,0.01,Wunderground v.1.15,2013-09-12 10:32:00,
2013-09-12 06:37:00,69.4,65.7,29.77,West,277,0.0,0.0,88,0.00,,,0.01,Wunderground v.1.15,2013-09-12 10:37:00,
2013-09-12 06:47:00,69.4,65.7,29.77,West,277,0.0,0.0,88,0.00,,,0.01,Wunderground v.1.15,2013-09-12 10:47:00,
2013-09-12 06:52:00,69.4,65.7,29.77,West,277,0.0,0.0,88,0.00,,,0.01,Wunderground v.1.15,2013-09-12 10:52:00,
2013-09-12 07:02:00,69.4,65.7,29.77,West,277,0.0,0.0,88,0.00,,,0.01,Wunderground v.1.15,2013-09-12 11:02:00,
2013-09-12 07:07:00,69.4,65.7,29.77,West,277,0.0,0.0,88,0.00,,,0.01,Wunderground v.1.15,2013-09-12 11:07:00,
2013-09-12 07:17:00,69.6,65.6,29.77,West,277,0.0,0.0,87,0.00,,,0.01,Wunderground v.1.15,2013-09-12 11:17:00,
2013-09-12 07:22:00,69.8,66.1,29.77,West,277,0.0,0.0,88,0.00,,,0.01,Wunderground v.1.15,2013-09-12 11:22:00,
2013-09-12 07:32:00,69.9,65.9,29.78,West,277,0.0,0.0,87,0.00,,,0.01,Wunderground v.1.15,2013-09-12 11:32:00,
2013-09-12 07:38:00,70.1,65.7,29.78,West,260,0.0,0.0,86,0.00,,,0.01,Wunderground v.1.15,2013-09-12 11:38:00,
2013-09-12 07:47:00,70.3,65.6,29.77,West,260,0.0,0.0,85,0.00,,,0.01,Wunderground v.1.15,2013-09-12 11:47:00,
2013-09-12 07:52:00,70.4,66.0,29.77,WSW,258,0.0,0.0,86,0.00,,,0.01,Wunderground v.1.15,2013-09-12 11:52:00,
2013-09-12 08:02:00,70.6,65.9,29.77,WSW,258,0.0,0.0,85,0.00,,,0.01,Wunderground v.1.15,2013-09-12 12:02:00,
2013-09-12 08:12:00,70.8,65.7,29.77,WSW,258,0.0,0.0,84,0.00,,,0.01,Wunderground v.1.15,2013-09-12 12:12:00,
2013-09-12 08:22:00,70.9,65.8,29.76,WSW,258,0.0,0.0,84,0.00,,,0.01,Wunderground v.1.15,2013-09-12 12:22:00,
2013-09-12 08:32:00,70.9,65.1,29.76,WSW,258,0.0,0.0,82,0.00,,,0.01,Wunderground v.1.15,2013-09-12 12:32:00,
2013-09-12 08:37:00,71.1,65.3,29.76,WSW,258,0.0,0.0,82,0.00,,,0.01,Wunderground v.1.15,2013-09-12 12:37:00,
2013-09-12 08:47:00,71.3,65.5,29.76,WSW,258,0.0,0.0,82,0.00,,,0.01,Wunderground v.1.15,2013-09-12 12:47:00,
2013-09-12 08:52:00,71.3,66.2,29.76,WSW,258,0.0,0.0,84,0.00,,,0.01,Wunderground v.1.15,2013-09-12 12:52:00,
2013-09-12 09:02:00,71.3,65.9,29.76,WSW,258,0.0,0.0,83,0.00,,,0.02,Wunderground v.1.15,2013-09-12 13:02:00,
2013-09-12 09:12:00,71.3,66.2,29.76,SSW,212,0.0,0.0,84,0.06,,,0.03,Wunderground v.1.15,2013-09-12 13:12:00,
2013-09-12 09:22:00,70.9,66.2,29.76,SSW,212,0.0,0.0,85,0.05,,,0.03,Wunderground v.1.15,2013-09-12 13:22:00,
2013-09-12 09:32:00,70.9,66.5,29.75,SSW,213,0.0,0.0,86,0.00,,,0.03,Wunderground v.1.15,2013-09-12 13:32:00,
2013-09-12 09:38:00,70.9,66.8,29.75,SSW,213,0.0,0.0,87,0.00,,,0.03,Wunderground v.1.15,2013-09-12 13:38:00,
2013-09-12 09:47:00,70.8,66.7,29.75,SSW,213,0.0,0.0,87,0.00,,,0.03,Wunderground v.1.15,2013-09-12 13:47:00,
2013-09-12 09:52:00,70.9,67.2,29.75,SSW,213,0.0,0.0,88,0.00,,,0.03,Wunderground v.1.15,2013-09-12 13:52:00,
2013-09-12 10:02:00,71.1,67.4,29.74,SSW,213,0.0,0.0,88,0.00,,,0.03,Wunderground v.1.15,2013-09-12 14:02:00,
2013-09-12 10:12:00,71.3,67.6,29.74,SSW,213,0.0,0.0,88,0.00,,,0.03,Wunderground v.1.15,2013-09-12 14:12:00,
2013-09-12 10:27:00,71.3,67.2,29.74,South,179,0.0,0.0,87,0.00,,,0.03,Wunderground v.1.15,2013-09-12 14:27:00,
2013-09-12 10:37:00,71.3,67.2,29.74,SW,222,0.0,0.0,87,0.00,,,0.03,Wunderground v.1.15,2013-09-12 14:37:00,
2013-09-12 10:47:00,71.1,67.0,29.74,SSW,208,0.0,0.0,87,0.00,,,0.04,Wunderground v.1.15,2013-09-12 14:47:00,
2013-09-12 10:57:00,70.9,67.2,29.74,WSW,241,0.0,0.0,88,0.08,,,0.06,Wunderground v.1.15,2013-09-12 14:57:00,
2013-09-12 11:07:00,70.9,67.2,29.73,West,274,0.0,0.0,88,0.06,,,0.07,Wunderground v.1.15,2013-09-12 15:07:00,
2013-09-12 11:17:00,70.9,67.5,29.73,West,274,0.0,0.0,89,0.06,,,0.07,Wunderground v.1.15,2013-09-12 15:17:00,
2013-09-12 11:27:00,70.9,67.5,29.73,West,272,0.0,0.0,89,0.00,,,0.07,Wunderground v.1.15,2013-09-12 15:27:00,
2013-09-12 11:42:00,71.3,68.2,29.73,West,263,0.0,0.0,90,0.00,,,0.07,Wunderground v.1.15,2013-09-12 15:42:00,
2013-09-12 11:57:00,71.3,67.9,29.73,SW,227,0.0,0.0,89,0.00,,,0.07,Wunderground v.1.15,2013-09-12 15:57:00,
2013-09-12 12:07:00,71.3,67.9,29.73,SW,222,0.0,0.0,89,0.00,,,0.07,Wunderground v.1.15,2013-09-12 16:07:00,
2013-09-12 12:12:00,71.5,68.4,29.73,SW,222,0.0,0.0,90,0.00,,,0.07,Wunderground v.1.15,2013-09-12 16:12:00,
2013-09-12 12:22:00,71.5,68.1,29.72,WSW,257,0.0,1.0,89,0.00,,,0.07,Wunderground v.1.15,2013-09-12 16:22:00,
2013-09-12 12:32:00,71.5,68.1,29.72,SW,222,0.0,0.0,89,0.00,,,0.07,Wunderground v.1.15,2013-09-12 16:32:00,
2013-09-12 12:37:00,71.6,67.5,29.72,SW,222,0.0,0.0,87,0.00,,,0.07,Wunderground v.1.15,2013-09-12 16:37:00,
2013-09-12 12:47:00,71.6,67.2,29.71,SW,222,0.0,0.0,86,0.00,,,0.07,Wunderground v.1.15,2013-09-12 16:47:00,
2013-09-12 12:52:00,71.5,67.1,29.71,SSW,206,0.0,0.0,86,0.00,,,0.07,Wunderground v.1.15,2013-09-12 16:52:00,
2013-09-12 13:02:00,71.5,67.1,29.71,South,179,0.0,0.0,86,0.00,,,0.07,Wunderground v.1.15,2013-09-12 17:02:00,
2013-09-12 13:07:00,71.3,66.2,29.71,SW,230,0.0,0.0,84,0.00,,,0.07,Wunderground v.1.15,2013-09-12 17:07:00,
2013-09-12 13:17:00,71.6,65.5,29.72,SSW,206,0.0,0.0,81,0.00,,,0.07,Wunderground v.1.15,2013-09-12 17:17:00,
2013-09-12 13:22:00,71.6,65.5,29.72,SSW,206,0.0,0.0,81,0.00,,,0.07,Wunderground v.1.15,2013-09-12 17:22:00,
2013-09-12 13:32:00,71.6,64.7,29.71,WSW,250,0.0,0.0,79,0.00,,,0.07,Wunderground v.1.15,2013-09-12 17:32:00,
2013-09-12 13:37:00,71.5,64.3,29.71,WSW,250,0.0,0.0,78,0.00,,,0.07,Wunderground v.1.15,2013-09-12 17:37:00,
2013-09-12 13:47:00,71.5,63.5,29.70,SSW,212,0.0,0.0,76,0.00,,,0.07,Wunderground v.1.15,2013-09-12 17:47:00,
2013-09-12 13:52:00,71.5,63.5,29.70,South,176,0.0,0.0,76,0.00,,,0.07,Wunderground v.1.15,2013-09-12 17:52:00,
2013-09-12 14:02:00,71.6,63.3,29.69,SE,144,0.0,0.0,75,0.00,,,0.07,Wunderground v.1.15,2013-09-12 18:02:00,
2013-09-12 14:12:00,71.6,63.6,29.69,SSW,195,0.0,0.0,76,0.00,,,0.07,Wunderground v.1.15,2013-09-12 18:12:00,
2013-09-12 14:23:00,71.8,63.8,29.69,SW,233,0.0,0.0,76,0.00,,,0.07,Wunderground v.1.15,2013-09-12 18:23:00,
2013-09-12 14:32:00,71.8,64.2,29.69,SW,234,0.0,0.0,77,0.00,,,0.07,Wunderground v.1.15,2013-09-12 18:32:00,
2013-09-12 14:37:00,71.8,64.6,29.69,SW,234,0.0,0.0,78,0.00,,,0.07,Wunderground v.1.15,2013-09-12 18:37:00,
2013-09-12 14:47:00,71.8,64.6,29.68,NW,304,0.0,0.0,78,0.00,,,0.07,Wunderground v.1.15,2013-09-12 18:47:00,
2013-09-12 14:53:00,71.8,64.6,29.68,WNW,299,0.0,0.0,78,0.00,,,0.07,Wunderground v.1.15,2013-09-12 18:53:00,
2013-09-12 15:02:00,72.0,65.1,29.68,WNW,298,0.0,0.0,79,0.00,,,0.07,Wunderground v.1.15,2013-09-12 19:02:00,
2013-09-12 15:07:00,72.1,65.2,29.68,WNW,285,0.0,0.0,79,0.00,,,0.07,Wunderground v.1.15,2013-09-12 19:07:00,
2013-09-12 15:17:00,72.3,65.8,29.67,WNW,285,0.0,0.0,80,0.00,,,0.07,Wunderground v.1.15,2013-09-12 19:17:00,
2013-09-12 15:22:00,72.5,66.0,29.67,WNW,285,0.0,0.0,80,0.00,,,0.07,Wunderground v.1.15,2013-09-12 19:22:00,
2013-09-12 15:32:00,72.5,65.2,29.68,WSW,251,0.0,0.0,78,0.00,,,0.07,Wunderground v.1.15,2013-09-12 19:32:00,
2013-09-12 15:37:00,72.5,65.2,29.68,NNW,343,0.0,0.0,78,0.00,,,0.07,Wunderground v.1.15,2013-09-12 19:37:00,
2013-09-12 15:47:00,72.5,65.2,29.67,NW,308,0.0,4.0,78,0.00,,,0.07,Wunderground v.1.15,2013-09-12 19:47:00,
2013-09-12 15:52:00,72.5,65.2,29.67,NW,308,0.0,0.0,78,0.00,,,0.07,Wunderground v.1.15,2013-09-12 19:52:00,
2013-09-12 16:02:00,72.7,65.4,29.66,NW,305,0.0,0.0,78,0.00,,,0.07,Wunderground v.1.15,2013-09-12 20:02:00,
2013-09-12 16:12:00,73.2,65.6,29.66,SSW,196,0.0,0.0,77,0.00,,,0.07,Wunderground v.1.15,2013-09-12 20:12:00,
2013-09-12 16:17:00,73.2,65.6,29.64,SW,223,0.0,0.0,77,0.00,,,0.07,Wunderground v.1.15,2013-09-12 20:17:00,
2013-09-12 16:27:00,73.5,65.5,29.64,SW,224,0.0,0.0,76,0.00,,,0.07,Wunderground v.1.15,2013-09-12 20:27:00,
2013-09-12 16:38:00,73.5,65.8,29.64,SW,229,0.0,0.0,77,0.00,,,0.07,Wunderground v.1.15,2013-09-12 20:38:00,
2013-09-12 16:47:00,73.5,65.5,29.63,SW,229,0.0,0.0,76,0.00,,,0.07,Wunderground v.1.15,2013-09-12 20:47:00,
2013-09-12 16:52:00,73.5,65.5,29.63,SW,229,0.0,0.0,76,0.00,,,0.07,Wunderground v.1.15,2013-09-12 20:52:00,
2013-09-12 17:02:00,73.5,65.5,29.64,WSW,257,0.0,0.0,76,0.00,,,0.07,Wunderground v.1.15,2013-09-12 21:02:00,
2013-09-12 17:12:00,73.5,65.5,29.64,WSW,257,0.0,0.0,76,0.00,,,0.07,Wunderground v.1.15,2013-09-12 21:12:00,
2013-09-12 17:17:00,73.5,65.5,29.64,WSW,257,0.0,0.0,76,0.00,,,0.07,Wunderground v.1.15,2013-09-12 21:17:00,
2013-09-12 17:22:00,73.7,65.3,29.64,West,260,0.0,0.0,75,0.00,,,0.07,Wunderground v.1.15,2013-09-12 21:22:00,
2013-09-12 17:32:00,73.5,64.7,29.64,West,277,0.0,0.0,74,0.00,,,0.07,Wunderground v.1.15,2013-09-12 21:32:00,
2013-09-12 17:38:00,73.3,64.5,29.64,West,278,0.0,0.0,74,0.00,,,0.07,Wunderground v.1.15,2013-09-12 21:38:00,
2013-09-12 17:47:00,71.1,63.5,29.66,West,260,1.0,1.0,77,0.00,,,0.08,Wunderground v.1.15,2013-09-12 21:47:00,
2013-09-12 17:52:00,69.4,63.0,29.66,NNE,18,1.0,1.0,80,0.00,,,0.08,Wunderground v.1.15,2013-09-12 21:52:00,
2013-09-12 18:02:00,67.9,62.2,29.67,WNW,288,0.0,0.0,82,0.00,,,0.09,Wunderground v.1.15,2013-09-12 22:02:00,
2013-09-12 18:12:00,67.6,63.3,29.67,NE,40,0.0,0.0,86,0.00,,,0.09,Wunderground v.1.15,2013-09-12 22:12:00,
2013-09-12 18:22:00,67.1,63.1,29.66,WNW,294,0.0,0.0,87,0.00,,,0.10,Wunderground v.1.15,2013-09-12 22:22:00,
2013-09-12 18:32:00,66.9,62.9,29.67,WNW,299,0.0,0.0,87,0.00,,,0.10,Wunderground v.1.15,2013-09-12 22:32:00,
2013-09-12 18:37:00,66.3,62.0,29.67,NNW,347,0.0,0.0,86,0.00,,,0.10,Wunderground v.1.15,2013-09-12 22:37:00,
2013-09-12 18:47:00,65.8,62.1,29.66,North,349,0.0,0.0,88,0.00,,,0.10,Wunderground v.1.15,2013-09-12 22:47:00,
2013-09-12 18:53:00,65.8,61.8,29.66,North,349,0.0,0.0,87,0.00,,,0.10,Wunderground v.1.15,2013-09-12 22:53:00,
2013-09-12 19:02:00,65.8,62.1,29.66,North,349,0.0,0.0,88,0.00,,,0.10,Wunderground v.1.15,2013-09-12 23:02:00,
2013-09-12 19:07:00,66.0,62.3,29.66,North,349,0.0,0.0,88,0.00,,,0.10,Wunderground v.1.15,2013-09-12 23:07:00,
2013-09-12 19:17:00,66.3,62.6,29.66,NNW,347,0.0,0.0,88,0.00,,,0.10,Wunderground v.1.15,2013-09-12 23:17:00,
2013-09-12 19:22:00,66.3,63.0,29.66,North,349,0.0,0.0,89,0.00,,,0.10,Wunderground v.1.15,2013-09-12 23:22:00,
2013-09-12 19:32:00,66.3,63.0,29.67,North,349,0.0,0.0,89,0.00,,,0.10,Wunderground v.1.15,2013-09-12 23:32:00,
2013-09-12 19:37:00,66.1,62.8,29.67,North,349,0.0,0.0,89,0.00,,,0.10,Wunderground v.1.15,2013-09-12 23:37:00,
2013-09-12 19:47:00,65.8,62.5,29.67,NNW,347,0.0,0.0,89,0.00,,,0.10,Wunderground v.1.15,2013-09-12 23:47:00,
2013-09-12 19:53:00,65.6,62.3,29.67,NNW,347,0.0,0.0,89,0.00,,,0.10,Wunderground v.1.15,2013-09-12 23:53:00,
2013-09-12 20:02:00,65.3,62.0,29.67,NNW,347,0.0,0.0,89,0.00,,,0.10,Wunderground v.1.15,2013-09-13 00:02:00,
2013-09-12 20:08:00,65.0,61.7,29.67,NNW,347,0.0,0.0,89,0.00,,,0.10,Wunderground v.1.15,2013-09-13 00:08:00,
2013-09-12 20:17:00,64.7,61.4,29.67,NNW,346,0.0,2.0,89,0.00,,,0.10,Wunderground v.1.15,2013-09-13 00:17:00,
2013-09-12 20:22:00,64.5,61.2,29.67,NNW,346,0.0,0.0,89,0.00,,,0.10,Wunderground v.1.15,2013-09-13 00:22:00,
2013-09-12 20:32:00,64.2,60.9,29.67,NNW,346,0.0,0.0,89,0.00,,,0.10,Wunderground v.1.15,2013-09-13 00:32:00,
2013-09-12 20:38:00,63.9,60.9,29.67,NNW,346,0.0,0.0,90,0.00,,,0.10,Wunderground v.1.15,2013-09-13 00:38:00,
2013-09-12 20:47:00,63.7,60.7,29.67,NW,306,0.0,0.0,90,0.00,,,0.10,Wunderground v.1.15,2013-09-13 00:47:00,
2013-09-12 20:52:00,63.7,60.7,29.67,NW,306,0.0,0.0,90,0.00,,,0.10,Wunderground v.1.15,2013-09-13 00:52:00,
2013-09-12 21:02:00,63.5,60.5,29.67,WNW,302,0.0,0.0,90,0.00,,,0.10,Wunderground v.1.15,2013-09-13 01:02:00,
2013-09-12 21:07:00,63.4,60.4,29.67,WNW,302,0.0,0.0,90,0.00,,,0.10,Wunderground v.1.15,2013-09-13 01:07:00,
2013-09-12 21:17:00,63.4,60.4,29.67,NW,304,0.0,0.0,90,0.00,,,0.11,Wunderground v.1.15,2013-09-13 01:17:00,
2013-09-12 21:23:00,63.2,60.2,29.67,NW,304,0.0,0.0,90,0.00,,,0.11,Wunderground v.1.15,2013-09-13 01:23:00,
2013-09-12 21:32:00,63.1,60.1,29.67,NW,304,0.0,0.0,90,0.00,,,0.11,Wunderground v.1.15,2013-09-13 01:32:00,
2013-09-12 21:42:00,62.9,59.9,29.67,WNW,299,0.0,0.0,90,0.00,,,0.11,Wunderground v.1.15,2013-09-13 01:42:00,
2013-09-12 21:57:00,62.7,59.7,29.67,West,271,0.0,0.0,90,0.00,,,0.11,Wunderground v.1.15,2013-09-13 01:57:00,
2013-09-12 22:02:00,62.7,59.7,29.68,West,270,0.0,0.0,90,0.00,,,0.11,Wunderground v.1.15,2013-09-13 02:02:00,
2013-09-12 22:07:00,62.6,59.6,29.68,West,270,0.0,0.0,90,0.00,,,0.11,Wunderground v.1.15,2013-09-13 02:07:00,
2013-09-12 22:17:00,62.4,59.4,29.68,West,270,0.0,0.0,90,0.00,,,0.11,Wunderground v.1.15,2013-09-13 02:17:00,
2013-09-12 22:22:00,62.4,59.4,29.68,West,263,0.0,0.0,90,0.00,,,0.11,Wunderground v.1.15,2013-09-13 02:22:00,
2013-09-12 22:32:00,62.3,59.3,29.68,West,263,0.0,0.0,90,0.00,,,0.11,Wunderground v.1.15,2013-09-13 02:32:00,
2013-09-12 22:42:00,62.1,59.1,29.68,West,263,0.0,0.0,90,0.00,,,0.11,Wunderground v.1.15,2013-09-13 02:42:00,
2013-09-12 22:53:00,62.0,59.0,29.68,West,263,0.0,0.0,90,0.00,,,0.11,Wunderground v.1.15,2013-09-13 02:53:00,
2013-09-12 23:02:00,61.8,58.5,29.68,West,272,0.0,0.0,89,0.00,,,0.11,Wunderground v.1.15,2013-09-13 03:02:00,
2013-09-12 23:12:00,61.6,58.3,29.68,West,278,0.0,0.0,89,0.00,,,0.11,Wunderground v.1.15,2013-09-13 03:12:00,
2013-09-12 23:22:00,61.3,58.0,29.68,West,278,0.0,0.0,89,0.00,,,0.11,Wunderground v.1.15,2013-09-13 03:22:00,
2013-09-12 23:32:00,61.2,57.9,29.68,West,278,0.0,0.0,89,0.00,,,0.11,Wunderground v.1.15,2013-09-13 03:32:00,
2013-09-12 23:37:00,61.3,58.0,29.68,West,278,0.0,0.0,89,0.00,,,0.11,Wunderground v.1.15,2013-09-13 03:37:00,
2013-09-12 23:47:00,61.2,57.6,29.69,West,278,0.0,0.0,88,0.00,,,0.11,Wunderground v.1.15,2013-09-13 03:47:00,
2013-09-12 23:52:00,61.2,57.6,29.69,West,278,0.0,0.0,88,0.00,,,0.11,Wunderground v.1.15,2013-09-13 03:52:00,